sensor_id;sensor_type;location;lat;lon;timestamp;temperature;humidity
21039;DHT22;10678;51.002;4.786;2023-12-29T00:01:31;12.50;99.90
21039;DHT22;10678;51.002;4.786;2023-12-29T00:03:57;12.50;99.90
21039;DHT22;10678;51.002;4.786;2023-12-29T00:06:23;12.50;99.90
21039;DHT22;10678;51.002;4.786;2023-12-29T00:08:48;12.40;99.90
21039;DHT22;10678;51.002;4.786;2023-12-29T00:11:20;12.40;99.90
21039;DHT22;10678;51.002;4.786;2023-12-29T00:13:46;12.30;99.90
21039;DHT22;10678;51.002;4.786;2023-12-29T00:16:12;12.40;99.90
21039;DHT22;10678;51.002;4.786;2023-12-29T00:18:38;12.40;99.90
21039;DHT22;10678;51.002;4.786;2023-12-29T00:21:04;12.30;99.90
21039;DHT22;10678;51.002;4.786;2023-12-29T00:23:30;12.20;99.90
21039;DHT22;10678;51.002;4.786;2023-12-29T00:25:56;12.30;99.90
21039;DHT22;10678;51.002;4.786;2023-12-29T00:28:21;12.40;99.90
21039;DHT22;10678;51.002;4.786;2023-12-29T00:30:47;12.30;99.90
21039;DHT22;10678;51.002;4.786;2023-12-29T00:33:13;12.30;99.90
21039;DHT22;10678;51.002;4.786;2023-12-29T00:35:38;12.40;99.90
21039;DHT22;10678;51.002;4.786;2023-12-29T00:38:06;12.40;99.90
21039;DHT22;10678;51.002;4.786;2023-12-29T00:40:33;12.20;99.90
21039;DHT22;10678;51.002;4.786;2023-12-29T00:43:00;12.30;99.90
21039;DHT22;10678;51.002;4.786;2023-12-29T00:45:27;12.30;99.90
21039;DHT22;10678;51.002;4.786;2023-12-29T00:47:57;12.30;99.90
21039;DHT22;10678;51.002;4.786;2023-12-29T00:50:23;12.40;99.90
21039;DHT22;10678;51.002;4.786;2023-12-29T00:52:48;12.30;99.90
21039;DHT22;10678;51.002;4.786;2023-12-29T00:55:14;12.30;99.90
21039;DHT22;10678;51.002;4.786;2023-12-29T00:57:40;12.40;99.90
21039;DHT22;10678;51.002;4.786;2023-12-29T01:00:11;12.50;99.90
21039;DHT22;10678;51.002;4.786;2023-12-29T01:02:36;12.50;99.90
21039;DHT22;10678;51.002;4.786;2023-12-29T01:05:02;12.30;99.90
21039;DHT22;10678;51.002;4.786;2023-12-29T01:07:28;12.30;99.90
21039;DHT22;10678;51.002;4.786;2023-12-29T01:09:54;12.30;99.90
21039;DHT22;10678;51.002;4.786;2023-12-29T01:12:19;12.40;99.90
21039;DHT22;10678;51.002;4.786;2023-12-29T01:14:45;12.30;99.90
21039;DHT22;10678;51.002;4.786;2023-12-29T01:17:10;12.30;99.90
21039;DHT22;10678;51.002;4.786;2023-12-29T01:19:36;12.20;99.90
21039;DHT22;10678;51.002;4.786;2023-12-29T01:22:01;12.10;99.90
21039;DHT22;10678;51.002;4.786;2023-12-29T01:24:27;12.20;99.90
21039;DHT22;10678;51.002;4.786;2023-12-29T01:26:53;12.30;99.90
21039;DHT22;10678;51.002;4.786;2023-12-29T01:29:18;12.30;99.90
21039;DHT22;10678;51.002;4.786;2023-12-29T01:31:44;12.40;99.90
21039;DHT22;10678;51.002;4.786;2023-12-29T01:34:10;12.40;99.90
21039;DHT22;10678;51.002;4.786;2023-12-29T01:36:35;12.30;99.90
21039;DHT22;10678;51.002;4.786;2023-12-29T01:39:01;12.30;99.90
21039;DHT22;10678;51.002;4.786;2023-12-29T01:41:29;12.10;99.90
21039;DHT22;10678;51.002;4.786;2023-12-29T01:46:31;12.40;99.90
21039;DHT22;10678;51.002;4.786;2023-12-29T01:48:58;12.30;99.90
21039;DHT22;10678;51.002;4.786;2023-12-29T01:51:26;12.20;99.90
21039;DHT22;10678;51.002;4.786;2023-12-29T01:53:52;12.30;99.90
21039;DHT22;10678;51.002;4.786;2023-12-29T01:56:19;12.40;99.90
21039;DHT22;10678;51.002;4.786;2023-12-29T01:58:46;12.50;99.90
21039;DHT22;10678;51.002;4.786;2023-12-29T02:01:14;12.40;99.90
21039;DHT22;10678;51.002;4.786;2023-12-29T02:03:40;12.40;99.90
21039;DHT22;10678;51.002;4.786;2023-12-29T02:06:06;12.30;99.90
21039;DHT22;10678;51.002;4.786;2023-12-29T02:08:33;12.30;99.90
21039;DHT22;10678;51.002;4.786;2023-12-29T02:10:59;12.30;99.90
21039;DHT22;10678;51.002;4.786;2023-12-29T02:13:25;12.50;99.90
21039;DHT22;10678;51.002;4.786;2023-12-29T02:15:55;12.50;99.90
21039;DHT22;10678;51.002;4.786;2023-12-29T02:18:22;12.50;99.90
21039;DHT22;10678;51.002;4.786;2023-12-29T02:20:48;12.50;99.90
21039;DHT22;10678;51.002;4.786;2023-12-29T02:23:14;12.50;99.90
21039;DHT22;10678;51.002;4.786;2023-12-29T02:25:40;12.50;99.90
21039;DHT22;10678;51.002;4.786;2023-12-29T02:28:29;12.30;99.90
21039;DHT22;10678;51.002;4.786;2023-12-29T02:31:07;12.30;99.90
21039;DHT22;10678;51.002;4.786;2023-12-29T02:33:39;12.30;99.90
21039;DHT22;10678;51.002;4.786;2023-12-29T02:36:06;12.30;99.90
21039;DHT22;10678;51.002;4.786;2023-12-29T02:38:32;12.30;99.90
21039;DHT22;10678;51.002;4.786;2023-12-29T02:40:59;12.30;99.90
21039;DHT22;10678;51.002;4.786;2023-12-29T02:43:25;12.30;99.90
21039;DHT22;10678;51.002;4.786;2023-12-29T02:45:50;12.30;99.90
21039;DHT22;10678;51.002;4.786;2023-12-29T02:48:16;12.30;99.90
21039;DHT22;10678;51.002;4.786;2023-12-29T02:50:42;12.30;99.90
21039;DHT22;10678;51.002;4.786;2023-12-29T02:53:08;12.40;99.90
21039;DHT22;10678;51.002;4.786;2023-12-29T02:55:34;12.40;99.90
21039;DHT22;10678;51.002;4.786;2023-12-29T02:57:59;12.40;99.90
21039;DHT22;10678;51.002;4.786;2023-12-29T03:00:25;12.30;99.90
21039;DHT22;10678;51.002;4.786;2023-12-29T03:02:51;12.20;99.90
21039;DHT22;10678;51.002;4.786;2023-12-29T03:05:16;12.40;99.90
21039;DHT22;10678;51.002;4.786;2023-12-29T03:07:42;12.30;99.90
21039;DHT22;10678;51.002;4.786;2023-12-29T03:10:08;12.30;99.90
21039;DHT22;10678;51.002;4.786;2023-12-29T03:12:34;12.30;99.90
21039;DHT22;10678;51.002;4.786;2023-12-29T03:14:59;12.30;99.90
21039;DHT22;10678;51.002;4.786;2023-12-29T03:17:25;12.10;99.90
21039;DHT22;10678;51.002;4.786;2023-12-29T03:19:52;12.00;99.90
21039;DHT22;10678;51.002;4.786;2023-12-29T03:22:18;12.10;99.90
21039;DHT22;10678;51.002;4.786;2023-12-29T03:24:43;12.00;99.90
21039;DHT22;10678;51.002;4.786;2023-12-29T03:27:09;11.90;99.90
21039;DHT22;10678;51.002;4.786;2023-12-29T03:29:35;11.90;99.90
21039;DHT22;10678;51.002;4.786;2023-12-29T03:32:01;11.90;99.90
21039;DHT22;10678;51.002;4.786;2023-12-29T03:34:27;11.80;99.90
21039;DHT22;10678;51.002;4.786;2023-12-29T03:36:52;11.90;99.90
21039;DHT22;10678;51.002;4.786;2023-12-29T03:39:18;11.90;99.90
21039;DHT22;10678;51.002;4.786;2023-12-29T03:41:44;11.80;99.90
21039;DHT22;10678;51.002;4.786;2023-12-29T03:44:09;11.80;99.90
21039;DHT22;10678;51.002;4.786;2023-12-29T03:46:36;11.90;99.90
21039;DHT22;10678;51.002;4.786;2023-12-29T03:49:02;11.80;99.90
21039;DHT22;10678;51.002;4.786;2023-12-29T03:51:28;11.90;99.90
21039;DHT22;10678;51.002;4.786;2023-12-29T03:53:54;11.80;99.90
21039;DHT22;10678;51.002;4.786;2023-12-29T03:56:19;11.80;99.90
21039;DHT22;10678;51.002;4.786;2023-12-29T03:58:45;11.70;99.90
21039;DHT22;10678;51.002;4.786;2023-12-29T04:01:15;11.70;99.90
21039;DHT22;10678;51.002;4.786;2023-12-29T04:03:42;11.70;99.90
21039;DHT22;10678;51.002;4.786;2023-12-29T04:06:08;11.70;99.90
21039;DHT22;10678;51.002;4.786;2023-12-29T04:08:34;11.60;99.90
21039;DHT22;10678;51.002;4.786;2023-12-29T04:11:00;11.60;99.90
21039;DHT22;10678;51.002;4.786;2023-12-29T04:13:26;11.60;99.90
21039;DHT22;10678;51.002;4.786;2023-12-29T04:15:52;11.60;99.90
21039;DHT22;10678;51.002;4.786;2023-12-29T04:18:21;11.60;99.90
21039;DHT22;10678;51.002;4.786;2023-12-29T04:20:47;11.60;99.90
21039;DHT22;10678;51.002;4.786;2023-12-29T04:23:12;11.60;99.90
21039;DHT22;10678;51.002;4.786;2023-12-29T04:25:39;11.50;99.90
21039;DHT22;10678;51.002;4.786;2023-12-29T04:28:05;11.60;99.90
21039;DHT22;10678;51.002;4.786;2023-12-29T04:30:30;11.50;99.90
21039;DHT22;10678;51.002;4.786;2023-12-29T04:32:56;11.50;99.90
21039;DHT22;10678;51.002;4.786;2023-12-29T04:35:21;11.60;99.90
21039;DHT22;10678;51.002;4.786;2023-12-29T04:37:47;11.60;99.90
21039;DHT22;10678;51.002;4.786;2023-12-29T04:40:13;11.70;99.90
21039;DHT22;10678;51.002;4.786;2023-12-29T04:42:38;11.50;99.90
21039;DHT22;10678;51.002;4.786;2023-12-29T04:45:05;11.50;99.90
21039;DHT22;10678;51.002;4.786;2023-12-29T04:47:31;11.50;99.90
21039;DHT22;10678;51.002;4.786;2023-12-29T04:49:56;11.50;99.90
21039;DHT22;10678;51.002;4.786;2023-12-29T04:52:22;11.50;99.90
21039;DHT22;10678;51.002;4.786;2023-12-29T04:54:48;11.50;99.90
21039;DHT22;10678;51.002;4.786;2023-12-29T04:57:14;11.70;99.90
21039;DHT22;10678;51.002;4.786;2023-12-29T04:59:40;11.80;99.90
21039;DHT22;10678;51.002;4.786;2023-12-29T05:02:05;11.80;99.90
21039;DHT22;10678;51.002;4.786;2023-12-29T05:04:31;11.70;99.90
21039;DHT22;10678;51.002;4.786;2023-12-29T05:06:57;11.70;99.90
21039;DHT22;10678;51.002;4.786;2023-12-29T05:09:22;11.60;99.90
21039;DHT22;10678;51.002;4.786;2023-12-29T05:11:48;11.70;99.90
21039;DHT22;10678;51.002;4.786;2023-12-29T05:14:14;11.60;99.90
21039;DHT22;10678;51.002;4.786;2023-12-29T05:16:41;11.60;99.90
21039;DHT22;10678;51.002;4.786;2023-12-29T05:19:06;11.50;99.90
21039;DHT22;10678;51.002;4.786;2023-12-29T05:21:32;11.60;99.90
21039;DHT22;10678;51.002;4.786;2023-12-29T05:23:58;11.60;99.90
21039;DHT22;10678;51.002;4.786;2023-12-29T05:26:23;11.70;99.90
21039;DHT22;10678;51.002;4.786;2023-12-29T05:28:49;11.60;99.90
21039;DHT22;10678;51.002;4.786;2023-12-29T05:31:14;11.70;99.90
21039;DHT22;10678;51.002;4.786;2023-12-29T05:33:40;11.60;99.90
21039;DHT22;10678;51.002;4.786;2023-12-29T05:36:07;11.50;99.90
21039;DHT22;10678;51.002;4.786;2023-12-29T05:38:33;11.70;99.90
21039;DHT22;10678;51.002;4.786;2023-12-29T05:41:00;11.80;99.90
21039;DHT22;10678;51.002;4.786;2023-12-29T05:43:31;11.80;99.90
21039;DHT22;10678;51.002;4.786;2023-12-29T05:46:00;11.80;99.90
21039;DHT22;10678;51.002;4.786;2023-12-29T05:48:26;11.90;99.90
21039;DHT22;10678;51.002;4.786;2023-12-29T05:50:52;12.00;99.90
21039;DHT22;10678;51.002;4.786;2023-12-29T05:53:18;12.00;99.90
21039;DHT22;10678;51.002;4.786;2023-12-29T05:55:44;12.00;99.90
21039;DHT22;10678;51.002;4.786;2023-12-29T05:58:11;11.80;99.90
21039;DHT22;10678;51.002;4.786;2023-12-29T06:00:37;11.80;99.90
21039;DHT22;10678;51.002;4.786;2023-12-29T06:03:02;12.00;99.90
21039;DHT22;10678;51.002;4.786;2023-12-29T06:05:29;12.00;99.90
21039;DHT22;10678;51.002;4.786;2023-12-29T06:07:55;12.00;99.90
21039;DHT22;10678;51.002;4.786;2023-12-29T06:10:21;12.00;99.90
21039;DHT22;10678;51.002;4.786;2023-12-29T06:12:47;11.90;99.90
21039;DHT22;10678;51.002;4.786;2023-12-29T06:15:13;11.80;99.90
21039;DHT22;10678;51.002;4.786;2023-12-29T06:17:40;11.70;99.90
21039;DHT22;10678;51.002;4.786;2023-12-29T06:20:06;11.80;99.90
21039;DHT22;10678;51.002;4.786;2023-12-29T06:22:32;11.90;99.90
21039;DHT22;10678;51.002;4.786;2023-12-29T06:24:58;11.90;99.90
21039;DHT22;10678;51.002;4.786;2023-12-29T06:27:25;11.90;99.90
21039;DHT22;10678;51.002;4.786;2023-12-29T06:29:51;11.80;99.90
21039;DHT22;10678;51.002;4.786;2023-12-29T06:32:17;11.60;99.90
21039;DHT22;10678;51.002;4.786;2023-12-29T06:34:42;11.40;99.90
21039;DHT22;10678;51.002;4.786;2023-12-29T06:37:08;11.30;99.90
21039;DHT22;10678;51.002;4.786;2023-12-29T06:39:34;11.40;99.90
21039;DHT22;10678;51.002;4.786;2023-12-29T06:42:00;11.50;99.90
21039;DHT22;10678;51.002;4.786;2023-12-29T06:44:25;11.30;99.90
21039;DHT22;10678;51.002;4.786;2023-12-29T06:46:51;11.50;99.90
21039;DHT22;10678;51.002;4.786;2023-12-29T06:49:17;11.50;99.90
21039;DHT22;10678;51.002;4.786;2023-12-29T06:51:42;11.50;99.90
21039;DHT22;10678;51.002;4.786;2023-12-29T06:54:08;11.50;99.90
21039;DHT22;10678;51.002;4.786;2023-12-29T06:56:34;11.40;99.90
21039;DHT22;10678;51.002;4.786;2023-12-29T06:58:59;11.20;99.90
21039;DHT22;10678;51.002;4.786;2023-12-29T07:01:25;11.20;99.90
21039;DHT22;10678;51.002;4.786;2023-12-29T07:03:51;11.10;99.90
21039;DHT22;10678;51.002;4.786;2023-12-29T07:06:16;11.10;99.90
21039;DHT22;10678;51.002;4.786;2023-12-29T07:08:42;11.10;99.90
21039;DHT22;10678;51.002;4.786;2023-12-29T07:11:11;11.10;99.90
21039;DHT22;10678;51.002;4.786;2023-12-29T07:13:37;11.10;99.90
21039;DHT22;10678;51.002;4.786;2023-12-29T07:16:04;11.10;99.90
21039;DHT22;10678;51.002;4.786;2023-12-29T07:18:29;11.10;99.90
21039;DHT22;10678;51.002;4.786;2023-12-29T07:20:55;11.10;99.90
21039;DHT22;10678;51.002;4.786;2023-12-29T07:23:21;11.20;99.90
21039;DHT22;10678;51.002;4.786;2023-12-29T07:25:48;11.20;99.90
21039;DHT22;10678;51.002;4.786;2023-12-29T07:28:14;11.10;99.90
21039;DHT22;10678;51.002;4.786;2023-12-29T07:30:39;11.20;99.90
21039;DHT22;10678;51.002;4.786;2023-12-29T07:33:05;11.10;99.90
21039;DHT22;10678;51.002;4.786;2023-12-29T07:35:31;11.20;99.90
21039;DHT22;10678;51.002;4.786;2023-12-29T07:37:56;11.10;99.90
21039;DHT22;10678;51.002;4.786;2023-12-29T07:40:22;11.00;99.90
21039;DHT22;10678;51.002;4.786;2023-12-29T07:42:48;11.10;99.90
21039;DHT22;10678;51.002;4.786;2023-12-29T07:45:16;11.00;99.90
21039;DHT22;10678;51.002;4.786;2023-12-29T07:47:42;11.00;99.90
21039;DHT22;10678;51.002;4.786;2023-12-29T07:50:07;11.00;99.90
21039;DHT22;10678;51.002;4.786;2023-12-29T07:52:33;11.00;99.90
21039;DHT22;10678;51.002;4.786;2023-12-29T07:54:59;11.00;99.90
21039;DHT22;10678;51.002;4.786;2023-12-29T07:57:25;11.10;99.90
21039;DHT22;10678;51.002;4.786;2023-12-29T07:59:50;11.10;99.90
21039;DHT22;10678;51.002;4.786;2023-12-29T08:02:16;11.20;99.90
21039;DHT22;10678;51.002;4.786;2023-12-29T08:04:42;11.10;99.90
21039;DHT22;10678;51.002;4.786;2023-12-29T08:07:08;11.20;99.90
21039;DHT22;10678;51.002;4.786;2023-12-29T08:09:34;11.10;99.90
21039;DHT22;10678;51.002;4.786;2023-12-29T08:11:59;11.20;99.90
21039;DHT22;10678;51.002;4.786;2023-12-29T08:14:26;11.20;99.90
21039;DHT22;10678;51.002;4.786;2023-12-29T08:16:51;11.30;99.90
21039;DHT22;10678;51.002;4.786;2023-12-29T08:19:17;11.20;99.90
21039;DHT22;10678;51.002;4.786;2023-12-29T08:21:43;11.10;99.90
21039;DHT22;10678;51.002;4.786;2023-12-29T08:24:08;11.20;99.90
21039;DHT22;10678;51.002;4.786;2023-12-29T08:26:34;11.30;99.90
21039;DHT22;10678;51.002;4.786;2023-12-29T08:29:00;11.30;99.90
21039;DHT22;10678;51.002;4.786;2023-12-29T08:31:25;11.40;99.90
21039;DHT22;10678;51.002;4.786;2023-12-29T08:33:54;11.40;99.90
21039;DHT22;10678;51.002;4.786;2023-12-29T08:36:20;11.30;99.90
21039;DHT22;10678;51.002;4.786;2023-12-29T08:38:46;11.20;99.90
21039;DHT22;10678;51.002;4.786;2023-12-29T08:41:14;11.30;99.90
21039;DHT22;10678;51.002;4.786;2023-12-29T08:43:39;11.30;99.90
21039;DHT22;10678;51.002;4.786;2023-12-29T08:46:05;11.50;99.90
21039;DHT22;10678;51.002;4.786;2023-12-29T08:48:31;11.50;99.90
21039;DHT22;10678;51.002;4.786;2023-12-29T08:50:56;11.50;99.90
21039;DHT22;10678;51.002;4.786;2023-12-29T08:53:23;11.40;99.90
21039;DHT22;10678;51.002;4.786;2023-12-29T08:55:48;11.50;99.90
21039;DHT22;10678;51.002;4.786;2023-12-29T08:58:14;11.30;99.90
21039;DHT22;10678;51.002;4.786;2023-12-29T09:00:40;11.30;99.90
21039;DHT22;10678;51.002;4.786;2023-12-29T09:03:05;11.20;99.90
21039;DHT22;10678;51.002;4.786;2023-12-29T09:05:31;11.10;99.90
21039;DHT22;10678;51.002;4.786;2023-12-29T09:07:56;10.90;99.90
21039;DHT22;10678;51.002;4.786;2023-12-29T09:10:22;10.80;99.90
21039;DHT22;10678;51.002;4.786;2023-12-29T09:12:48;10.50;99.90
21039;DHT22;10678;51.002;4.786;2023-12-29T09:15:14;10.40;99.90
21039;DHT22;10678;51.002;4.786;2023-12-29T09:17:40;10.30;99.90
21039;DHT22;10678;51.002;4.786;2023-12-29T09:20:06;10.20;99.90
21039;DHT22;10678;51.002;4.786;2023-12-29T09:22:33;10.30;99.90
21039;DHT22;10678;51.002;4.786;2023-12-29T09:24:59;10.40;99.90
21039;DHT22;10678;51.002;4.786;2023-12-29T09:27:24;10.50;99.90
21039;DHT22;10678;51.002;4.786;2023-12-29T09:29:50;10.90;99.90
21039;DHT22;10678;51.002;4.786;2023-12-29T09:32:16;11.10;99.90
21039;DHT22;10678;51.002;4.786;2023-12-29T09:34:41;11.20;99.90
21039;DHT22;10678;51.002;4.786;2023-12-29T09:37:08;11.40;99.90
21039;DHT22;10678;51.002;4.786;2023-12-29T09:39:33;11.60;99.90
21039;DHT22;10678;51.002;4.786;2023-12-29T09:41:59;11.90;99.90
21039;DHT22;10678;51.002;4.786;2023-12-29T09:44:31;12.00;99.90
21039;DHT22;10678;51.002;4.786;2023-12-29T09:47:01;12.10;99.90
21039;DHT22;10678;51.002;4.786;2023-12-29T09:49:30;12.20;99.90
21039;DHT22;10678;51.002;4.786;2023-12-29T09:51:58;12.20;99.90
21039;DHT22;10678;51.002;4.786;2023-12-29T09:54:24;12.30;99.90
21039;DHT22;10678;51.002;4.786;2023-12-29T09:56:51;12.50;99.90
21039;DHT22;10678;51.002;4.786;2023-12-29T09:59:17;12.50;99.90
21039;DHT22;10678;51.002;4.786;2023-12-29T10:01:44;12.60;99.90
21039;DHT22;10678;51.002;4.786;2023-12-29T10:04:11;12.50;99.90
21039;DHT22;10678;51.002;4.786;2023-12-29T10:06:40;12.40;99.90
21039;DHT22;10678;51.002;4.786;2023-12-29T10:09:09;12.30;99.90
21039;DHT22;10678;51.002;4.786;2023-12-29T10:11:37;12.20;99.90
21039;DHT22;10678;51.002;4.786;2023-12-29T10:14:14;12.10;99.90
21039;DHT22;10678;51.002;4.786;2023-12-29T10:16:45;12.30;99.90
21039;DHT22;10678;51.002;4.786;2023-12-29T10:19:45;12.10;99.90
21039;DHT22;10678;51.002;4.786;2023-12-29T10:23:11;12.10;99.90
21039;DHT22;10678;51.002;4.786;2023-12-29T10:25:17;12.10;99.90
21039;DHT22;10678;51.002;4.786;2023-12-29T10:27:43;11.80;99.90
21039;DHT22;10678;51.002;4.786;2023-12-29T10:30:10;11.60;99.90
21039;DHT22;10678;51.002;4.786;2023-12-29T10:32:37;11.50;99.90
21039;DHT22;10678;51.002;4.786;2023-12-29T10:35:09;11.40;99.90
21039;DHT22;10678;51.002;4.786;2023-12-29T10:37:36;11.60;99.90
21039;DHT22;10678;51.002;4.786;2023-12-29T10:40:02;11.70;99.90
21039;DHT22;10678;51.002;4.786;2023-12-29T10:42:27;11.80;99.90
21039;DHT22;10678;51.002;4.786;2023-12-29T10:45:08;11.90;99.90
21039;DHT22;10678;51.002;4.786;2023-12-29T10:47:34;11.90;99.90
21039;DHT22;10678;51.002;4.786;2023-12-29T10:50:05;11.90;99.90
21039;DHT22;10678;51.002;4.786;2023-12-29T10:52:31;11.90;99.90
21039;DHT22;10678;51.002;4.786;2023-12-29T10:55:08;12.00;99.90
21039;DHT22;10678;51.002;4.786;2023-12-29T10:57:35;12.10;99.90
21039;DHT22;10678;51.002;4.786;2023-12-29T11:00:01;12.40;99.90
21039;DHT22;10678;51.002;4.786;2023-12-29T11:02:28;12.40;99.90
21039;DHT22;10678;51.002;4.786;2023-12-29T11:05:11;12.30;99.90
21039;DHT22;10678;51.002;4.786;2023-12-29T11:07:39;12.50;99.90
21039;DHT22;10678;51.002;4.786;2023-12-29T11:10:09;12.50;99.90
21039;DHT22;10678;51.002;4.786;2023-12-29T11:12:36;12.50;99.90
21039;DHT22;10678;51.002;4.786;2023-12-29T11:15:04;12.70;99.90
21039;DHT22;10678;51.002;4.786;2023-12-29T11:17:31;12.60;99.90
21039;DHT22;10678;51.002;4.786;2023-12-29T11:19:59;12.60;99.90
21039;DHT22;10678;51.002;4.786;2023-12-29T11:22:28;12.50;99.90
21039;DHT22;10678;51.002;4.786;2023-12-29T11:24:54;12.40;99.90
21039;DHT22;10678;51.002;4.786;2023-12-29T11:27:21;12.50;99.90
21039;DHT22;10678;51.002;4.786;2023-12-29T11:29:47;12.50;99.90
21039;DHT22;10678;51.002;4.786;2023-12-29T11:32:20;12.50;99.90
21039;DHT22;10678;51.002;4.786;2023-12-29T11:34:53;12.50;99.90
21039;DHT22;10678;51.002;4.786;2023-12-29T11:37:27;12.60;99.90
21039;DHT22;10678;51.002;4.786;2023-12-29T11:42:34;12.50;99.90
21039;DHT22;10678;51.002;4.786;2023-12-29T11:45:23;12.40;99.90
21039;DHT22;10678;51.002;4.786;2023-12-29T11:47:49;12.40;99.90
21039;DHT22;10678;51.002;4.786;2023-12-29T11:50:30;12.50;99.90
21039;DHT22;10678;51.002;4.786;2023-12-29T11:52:57;12.40;99.90
21039;DHT22;10678;51.002;4.786;2023-12-29T11:55:37;12.40;99.90
21039;DHT22;10678;51.002;4.786;2023-12-29T11:58:03;12.50;99.90
21039;DHT22;10678;51.002;4.786;2023-12-29T12:00:46;12.40;99.90
21039;DHT22;10678;51.002;4.786;2023-12-29T12:05:48;12.40;99.90
21039;DHT22;10678;51.002;4.786;2023-12-29T12:08:28;12.40;99.90
21039;DHT22;10678;51.002;4.786;2023-12-29T12:10:54;12.70;99.90
21039;DHT22;10678;51.002;4.786;2023-12-29T12:13:42;12.70;99.90
21039;DHT22;10678;51.002;4.786;2023-12-29T12:16:08;12.80;99.90
21039;DHT22;10678;51.002;4.786;2023-12-29T12:18:34;12.60;99.90
21039;DHT22;10678;51.002;4.786;2023-12-29T12:21:00;12.50;99.90
21039;DHT22;10678;51.002;4.786;2023-12-29T12:23:30;12.40;99.90
21039;DHT22;10678;51.002;4.786;2023-12-29T12:26:01;12.30;99.90
21039;DHT22;10678;51.002;4.786;2023-12-29T12:28:27;12.30;99.90
21039;DHT22;10678;51.002;4.786;2023-12-29T12:31:04;12.30;99.90
21039;DHT22;10678;51.002;4.786;2023-12-29T12:33:31;12.10;99.90
21039;DHT22;10678;51.002;4.786;2023-12-29T12:36:00;12.00;99.90
21039;DHT22;10678;51.002;4.786;2023-12-29T12:38:26;12.00;99.90
21039;DHT22;10678;51.002;4.786;2023-12-29T12:40:52;11.90;99.90
21039;DHT22;10678;51.002;4.786;2023-12-29T12:43:18;12.10;99.90
21039;DHT22;10678;51.002;4.786;2023-12-29T12:45:48;12.10;99.90
21039;DHT22;10678;51.002;4.786;2023-12-29T12:48:24;12.10;99.90
21039;DHT22;10678;51.002;4.786;2023-12-29T12:50:54;12.20;99.90
21039;DHT22;10678;51.002;4.786;2023-12-29T12:53:23;12.00;99.90
21039;DHT22;10678;51.002;4.786;2023-12-29T12:55:50;11.80;99.90
21039;DHT22;10678;51.002;4.786;2023-12-29T12:58:20;11.60;99.90
21039;DHT22;10678;51.002;4.786;2023-12-29T13:00:46;11.70;99.90
21039;DHT22;10678;51.002;4.786;2023-12-29T13:03:13;11.70;99.90
21039;DHT22;10678;51.002;4.786;2023-12-29T13:05:39;11.40;99.90
21039;DHT22;10678;51.002;4.786;2023-12-29T13:08:05;11.30;99.90
21039;DHT22;10678;51.002;4.786;2023-12-29T13:10:31;11.30;99.90
21039;DHT22;10678;51.002;4.786;2023-12-29T13:12:57;11.20;99.90
21039;DHT22;10678;51.002;4.786;2023-12-29T13:15:23;11.40;99.90
21039;DHT22;10678;51.002;4.786;2023-12-29T13:17:55;11.30;99.90
21039;DHT22;10678;51.002;4.786;2023-12-29T13:20:21;11.20;99.90
21039;DHT22;10678;51.002;4.786;2023-12-29T13:22:50;11.30;99.90
21039;DHT22;10678;51.002;4.786;2023-12-29T13:25:25;11.50;99.90
21039;DHT22;10678;51.002;4.786;2023-12-29T13:27:53;11.70;99.90
21039;DHT22;10678;51.002;4.786;2023-12-29T13:30:20;11.70;99.90
21039;DHT22;10678;51.002;4.786;2023-12-29T13:32:47;11.80;99.90
21039;DHT22;10678;51.002;4.786;2023-12-29T13:35:40;11.80;99.90
21039;DHT22;10678;51.002;4.786;2023-12-29T13:38:11;11.90;99.90
21039;DHT22;10678;51.002;4.786;2023-12-29T13:41:13;12.00;99.90
21039;DHT22;10678;51.002;4.786;2023-12-29T13:43:33;12.00;99.90
21039;DHT22;10678;51.002;4.786;2023-12-29T13:46:02;12.20;99.90
21039;DHT22;10678;51.002;4.786;2023-12-29T13:48:29;12.30;99.90
21039;DHT22;10678;51.002;4.786;2023-12-29T13:50:57;12.30;99.90
21039;DHT22;10678;51.002;4.786;2023-12-29T13:53:22;12.50;99.90
21039;DHT22;10678;51.002;4.786;2023-12-29T13:55:48;12.40;99.90
21039;DHT22;10678;51.002;4.786;2023-12-29T13:58:15;12.40;99.90
21039;DHT22;10678;51.002;4.786;2023-12-29T14:00:43;12.50;99.90
21039;DHT22;10678;51.002;4.786;2023-12-29T14:03:22;12.40;99.90
21039;DHT22;10678;51.002;4.786;2023-12-29T14:05:55;12.40;99.90
21039;DHT22;10678;51.002;4.786;2023-12-29T14:08:27;12.30;99.90
21039;DHT22;10678;51.002;4.786;2023-12-29T14:10:57;12.20;99.90
21039;DHT22;10678;51.002;4.786;2023-12-29T14:13:23;12.10;99.90
21039;DHT22;10678;51.002;4.786;2023-12-29T14:15:48;12.00;99.90
21039;DHT22;10678;51.002;4.786;2023-12-29T14:18:27;12.00;99.90
21039;DHT22;10678;51.002;4.786;2023-12-29T14:20:57;12.00;99.90
21039;DHT22;10678;51.002;4.786;2023-12-29T14:23:23;11.90;99.90
21039;DHT22;10678;51.002;4.786;2023-12-29T14:25:49;11.90;99.90
21039;DHT22;10678;51.002;4.786;2023-12-29T14:28:16;12.00;99.90
21039;DHT22;10678;51.002;4.786;2023-12-29T14:30:42;11.90;99.90
21039;DHT22;10678;51.002;4.786;2023-12-29T14:33:08;11.90;99.90
21039;DHT22;10678;51.002;4.786;2023-12-29T14:35:34;12.00;99.90
21039;DHT22;10678;51.002;4.786;2023-12-29T14:38:00;12.10;99.90
21039;DHT22;10678;51.002;4.786;2023-12-29T14:40:25;12.10;99.90
21039;DHT22;10678;51.002;4.786;2023-12-29T14:42:51;12.20;99.90
21039;DHT22;10678;51.002;4.786;2023-12-29T14:45:17;12.20;99.90
21039;DHT22;10678;51.002;4.786;2023-12-29T14:47:42;12.30;99.90
21039;DHT22;10678;51.002;4.786;2023-12-29T14:50:11;12.20;99.90
21039;DHT22;10678;51.002;4.786;2023-12-29T14:52:37;12.20;99.90
21039;DHT22;10678;51.002;4.786;2023-12-29T14:55:03;12.30;99.90
21039;DHT22;10678;51.002;4.786;2023-12-29T14:57:29;12.30;99.90
21039;DHT22;10678;51.002;4.786;2023-12-29T14:59:54;12.10;99.90
21039;DHT22;10678;51.002;4.786;2023-12-29T15:02:20;12.10;99.90
21039;DHT22;10678;51.002;4.786;2023-12-29T15:04:46;12.20;99.90
21039;DHT22;10678;51.002;4.786;2023-12-29T15:07:11;12.20;99.90
21039;DHT22;10678;51.002;4.786;2023-12-29T15:09:37;12.20;99.90
21039;DHT22;10678;51.002;4.786;2023-12-29T15:12:03;12.10;99.90
21039;DHT22;10678;51.002;4.786;2023-12-29T15:14:30;12.10;99.90
21039;DHT22;10678;51.002;4.786;2023-12-29T15:16:56;12.00;99.90
21039;DHT22;10678;51.002;4.786;2023-12-29T15:19:22;12.00;99.90
21039;DHT22;10678;51.002;4.786;2023-12-29T15:21:48;11.90;99.90
21039;DHT22;10678;51.002;4.786;2023-12-29T15:24:15;11.90;99.90
21039;DHT22;10678;51.002;4.786;2023-12-29T15:26:41;12.00;99.90
21039;DHT22;10678;51.002;4.786;2023-12-29T15:29:07;12.00;99.90
21039;DHT22;10678;51.002;4.786;2023-12-29T15:31:32;11.90;99.90
21039;DHT22;10678;51.002;4.786;2023-12-29T15:33:58;11.90;99.90
21039;DHT22;10678;51.002;4.786;2023-12-29T15:36:24;11.80;99.90
21039;DHT22;10678;51.002;4.786;2023-12-29T15:38:50;11.80;99.90